sensor_id;sensor_type;location;lat;lon;timestamp;P1;durP1;ratioP1;P2;durP2;ratioP2
23768;SDS011;12064;50.890;5.424;2024-03-23T00:58:27;2.13;;;1.55;;
23768;SDS011;12064;50.890;5.424;2024-03-23T01:07:18;6.80;;;1.87;;
23768;SDS011;12064;50.890;5.424;2024-03-23T01:16:09;2.00;;;1.60;;
23768;SDS011;12064;50.890;5.424;2024-03-23T01:24:59;3.92;;;1.63;;
23768;SDS011;12064;50.890;5.424;2024-03-23T01:33:53;2.50;;;1.60;;
23768;SDS011;12064;50.890;5.424;2024-03-23T01:42:56;4.38;;;1.50;;
23768;SDS011;12064;50.890;5.424;2024-03-23T01:51:47;4.80;;;1.50;;
23768;SDS011;12064;50.890;5.424;2024-03-23T02:00:38;4.05;;;1.60;;
23768;SDS011;12064;50.890;5.424;2024-03-23T02:09:29;3.17;;;1.73;;
23768;SDS011;12064;50.890;5.424;2024-03-23T02:18:23;2.88;;;1.70;;
23768;SDS011;12064;50.890;5.424;2024-03-23T02:27:13;3.45;;;1.50;;
23768;SDS011;12064;50.890;5.424;2024-03-23T02:36:04;3.80;;;1.80;;
23768;SDS011;12064;50.890;5.424;2024-03-23T02:44:55;3.92;;;1.60;;
23768;SDS011;12064;50.890;5.424;2024-03-23T02:53:45;3.75;;;1.58;;
23768;SDS011;12064;50.890;5.424;2024-03-23T03:02:36;5.67;;;1.70;;
23768;SDS011;12064;50.890;5.424;2024-03-23T03:11:27;3.40;;;1.42;;
23768;SDS011;12064;50.890;5.424;2024-03-23T03:20:18;2.03;;;1.20;;
23768;SDS011;12064;50.890;5.424;2024-03-23T03:29:09;3.75;;;1.52;;
23768;SDS011;12064;50.890;5.424;2024-03-23T03:38:00;3.75;;;1.50;;
23768;SDS011;12064;50.890;5.424;2024-03-23T03:46:51;2.95;;;1.40;;
23768;SDS011;12064;50.890;5.424;2024-03-23T03:55:41;3.70;;;1.80;;
23768;SDS011;12064;50.890;5.424;2024-03-23T04:04:32;2.92;;;1.48;;
23768;SDS011;12064;50.890;5.424;2024-03-23T04:13:22;2.30;;;1.40;;
23768;SDS011;12064;50.890;5.424;2024-03-23T04:22:13;2.07;;;1.40;;
23768;SDS011;12064;50.890;5.424;2024-03-23T04:31:04;3.40;;;1.27;;
23768;SDS011;12064;50.890;5.424;2024-03-23T04:39:55;4.85;;;1.55;;
23768;SDS011;12064;50.890;5.424;2024-03-23T04:48:46;2.37;;;1.30;;
23768;SDS011;12064;50.890;5.424;2024-03-23T04:57:36;3.08;;;1.20;;
23768;SDS011;12064;50.890;5.424;2024-03-23T05:06:27;2.80;;;1.50;;
23768;SDS011;12064;50.890;5.424;2024-03-23T05:15:18;3.38;;;1.33;;
23768;SDS011;12064;50.890;5.424;2024-03-23T05:24:09;2.33;;;1.20;;
23768;SDS011;12064;50.890;5.424;2024-03-23T05:33:00;3.47;;;1.20;;
23768;SDS011;12064;50.890;5.424;2024-03-23T05:41:50;2.27;;;1.53;;
23768;SDS011;12064;50.890;5.424;2024-03-23T05:50:41;3.83;;;1.55;;
23768;SDS011;12064;50.890;5.424;2024-03-23T05:59:33;3.38;;;1.80;;
23768;SDS011;12064;50.890;5.424;2024-03-23T06:08:24;4.45;;;1.95;;
23768;SDS011;12064;50.890;5.424;2024-03-23T06:17:14;5.60;;;2.03;;
23768;SDS011;12064;50.890;5.424;2024-03-23T06:26:05;4.43;;;1.65;;
23768;SDS011;12064;50.890;5.424;2024-03-23T06:34:56;3.23;;;1.70;;
23768;SDS011;12064;50.890;5.424;2024-03-23T06:43:46;4.67;;;1.60;;
23768;SDS011;12064;50.890;5.424;2024-03-23T06:52:37;3.90;;;1.50;;
23768;SDS011;12064;50.890;5.424;2024-03-23T07:01:28;2.90;;;1.50;;
23768;SDS011;12064;50.890;5.424;2024-03-23T07:10:22;2.50;;;1.40;;
23768;SDS011;12064;50.890;5.424;2024-03-23T07:19:13;3.58;;;1.13;;
23768;SDS011;12064;50.890;5.424;2024-03-23T07:28:06;3.35;;;1.50;;
23768;SDS011;12064;50.890;5.424;2024-03-23T07:36:56;2.97;;;1.30;;
23768;SDS011;12064;50.890;5.424;2024-03-23T07:45:53;2.25;;;1.45;;
23768;SDS011;12064;50.890;5.424;2024-03-23T07:54:45;3.95;;;1.60;;
23768;SDS011;12064;50.890;5.424;2024-03-23T08:03:36;1.67;;;1.20;;
23768;SDS011;12064;50.890;5.424;2024-03-23T08:12:28;3.35;;;1.50;;
23768;SDS011;12064;50.890;5.424;2024-03-23T08:21:18;3.13;;;1.37;;
23768;SDS011;12064;50.890;5.424;2024-03-23T08:30:09;2.90;;;1.38;;
23768;SDS011;12064;50.890;5.424;2024-03-23T08:39:01;1.80;;;1.15;;
23768;SDS011;12064;50.890;5.424;2024-03-23T08:47:52;1.75;;;1.20;;
23768;SDS011;12064;50.890;5.424;2024-03-23T08:56:42;2.30;;;1.10;;
23768;SDS011;12064;50.890;5.424;2024-03-23T09:05:33;1.60;;;1.20;;
23768;SDS011;12064;50.890;5.424;2024-03-23T09:14:29;1.48;;;1.25;;
23768;SDS011;12064;50.890;5.424;2024-03-23T09:23:23;2.63;;;1.23;;
23768;SDS011;12064;50.890;5.424;2024-03-23T09:32:13;1.80;;;1.10;;
23768;SDS011;12064;50.890;5.424;2024-03-23T09:41:10;1.37;;;1.13;;
23768;SDS011;12064;50.890;5.424;2024-03-23T09:50:02;1.83;;;1.08;;
23768;SDS011;12064;50.890;5.424;2024-03-23T09:59:01;1.58;;;1.15;;
23768;SDS011;12064;50.890;5.424;2024-03-23T10:07:56;1.55;;;1.00;;
23768;SDS011;12064;50.890;5.424;2024-03-23T10:16:47;2.42;;;1.15;;
23768;SDS011;12064;50.890;5.424;2024-03-23T10:25:37;1.75;;;1.02;;
23768;SDS011;12064;50.890;5.424;2024-03-23T10:34:28;3.00;;;1.10;;
23768;SDS011;12064;50.890;5.424;2024-03-23T10:43:19;2.00;;;1.03;;
23768;SDS011;12064;50.890;5.424;2024-03-23T10:52:10;1.95;;;1.10;;
23768;SDS011;12064;50.890;5.424;2024-03-23T11:01:00;2.10;;;1.27;;
23768;SDS011;12064;50.890;5.424;2024-03-23T11:09:53;1.50;;;0.90;;
23768;SDS011;12064;50.890;5.424;2024-03-23T11:18:44;1.85;;;0.90;;
23768;SDS011;12064;50.890;5.424;2024-03-23T11:27:35;1.17;;;1.00;;
23768;SDS011;12064;50.890;5.424;2024-03-23T11:36:25;1.10;;;0.90;;
23768;SDS011;12064;50.890;5.424;2024-03-23T11:45:16;1.20;;;0.80;;
23768;SDS011;12064;50.890;5.424;2024-03-23T11:54:08;1.13;;;0.95;;
23768;SDS011;12064;50.890;5.424;2024-03-23T12:03:02;1.10;;;0.90;;
23768;SDS011;12064;50.890;5.424;2024-03-23T12:11:53;1.58;;;1.10;;
23768;SDS011;12064;50.890;5.424;2024-03-23T12:20:44;1.43;;;0.80;;
23768;SDS011;12064;50.890;5.424;2024-03-23T12:29:35;1.00;;;0.90;;
23768;SDS011;12064;50.890;5.424;2024-03-23T12:38:29;0.85;;;0.70;;
23768;SDS011;12064;50.890;5.424;2024-03-23T12:47:20;0.73;;;0.70;;
23768;SDS011;12064;50.890;5.424;2024-03-23T12:56:13;0.77;;;0.70;;
23768;SDS011;12064;50.890;5.424;2024-03-23T13:05:05;2.28;;;1.00;;
23768;SDS011;12064;50.890;5.424;2024-03-23T13:13:56;1.33;;;0.98;;
23768;SDS011;12064;50.890;5.424;2024-03-23T13:22:46;0.88;;;0.80;;
23768;SDS011;12064;50.890;5.424;2024-03-23T13:31:37;1.38;;;0.95;;
23768;SDS011;12064;50.890;5.424;2024-03-23T13:40:31;0.80;;;0.80;;
23768;SDS011;12064;50.890;5.424;2024-03-23T13:49:30;1.27;;;0.90;;
23768;SDS011;12064;50.890;5.424;2024-03-23T13:58:22;1.10;;;0.73;;
23768;SDS011;12064;50.890;5.424;2024-03-23T14:07:15;0.60;;;0.60;;
23768;SDS011;12064;50.890;5.424;2024-03-23T14:16:08;1.15;;;0.80;;
23768;SDS011;12064;50.890;5.424;2024-03-23T14:24:58;0.60;;;0.60;;
23768;SDS011;12064;50.890;5.424;2024-03-23T14:33:49;1.10;;;0.70;;
23768;SDS011;12064;50.890;5.424;2024-03-23T14:42:40;1.15;;;0.55;;
23768;SDS011;12064;50.890;5.424;2024-03-23T14:51:31;0.75;;;0.60;;
23768;SDS011;12064;50.890;5.424;2024-03-23T15:00:23;1.20;;;0.70;;
23768;SDS011;12064;50.890;5.424;2024-03-23T15:09:14;0.80;;;0.60;;
23768;SDS011;12064;50.890;5.424;2024-03-23T15:18:05;1.35;;;0.82;;
23768;SDS011;12064;50.890;5.424;2024-03-23T15:26:56;0.77;;;0.63;;
23768;SDS011;12064;50.890;5.424;2024-03-23T15:35:47;0.73;;;0.60;;
23768;SDS011;12064;50.890;5.424;2024-03-23T15:44:37;0.77;;;0.67;;
23768;SDS011;12064;50.890;5.424;2024-03-23T15:53:28;1.00;;;0.70;;
23768;SDS011;12064;50.890;5.424;2024-03-23T16:02:18;1.30;;;0.60;;
23768;SDS011;12064;50.890;5.424;2024-03-23T16:11:09;1.25;;;0.80;;
23768;SDS011;12064;50.890;5.424;2024-03-23T16:20:00;0.95;;;0.70;;
23768;SDS011;12064;50.890;5.424;2024-03-23T16:28:52;0.90;;;0.70;;
23768;SDS011;12064;50.890;5.424;2024-03-23T16:37:46;0.60;;;0.60;;
23768;SDS011;12064;50.890;5.424;2024-03-23T16:46:37;1.52;;;0.77;;
23768;SDS011;12064;50.890;5.424;2024-03-23T16:55:28;0.70;;;0.60;;
23768;SDS011;12064;50.890;5.424;2024-03-23T17:04:20;0.87;;;0.60;;
23768;SDS011;12064;50.890;5.424;2024-03-23T17:13:12;1.75;;;0.60;;
23768;SDS011;12064;50.890;5.424;2024-03-23T17:22:03;0.83;;;0.70;;
23768;SDS011;12064;50.890;5.424;2024-03-23T17:30:54;1.42;;;0.77;;
23768;SDS011;12064;50.890;5.424;2024-03-23T17:39:44;0.60;;;0.60;;
23768;SDS011;12064;50.890;5.424;2024-03-23T17:48:35;1.05;;;0.70;;
23768;SDS011;12064;50.890;5.424;2024-03-23T17:57:26;1.60;;;0.63;;
23768;SDS011;12064;50.890;5.424;2024-03-23T18:06:16;0.80;;;0.60;;
23768;SDS011;12064;50.890;5.424;2024-03-23T18:15:07;0.60;;;0.60;;
23768;SDS011;12064;50.890;5.424;2024-03-23T18:23:58;2.05;;;0.80;;
23768;SDS011;12064;50.890;5.424;2024-03-23T18:32:49;2.00;;;0.60;;
23768;SDS011;12064;50.890;5.424;2024-03-23T18:41:39;1.43;;;0.43;;
23768;SDS011;12064;50.890;5.424;2024-03-23T18:50:30;1.17;;;0.60;;
23768;SDS011;12064;50.890;5.424;2024-03-23T18:59:20;1.40;;;0.73;;
23768;SDS011;12064;50.890;5.424;2024-03-23T19:08:11;1.58;;;0.93;;
23768;SDS011;12064;50.890;5.424;2024-03-23T19:17:02;1.93;;;1.00;;
23768;SDS011;12064;50.890;5.424;2024-03-23T19:25:53;2.85;;;1.30;;
23768;SDS011;12064;50.890;5.424;2024-03-23T19:34:44;3.35;;;1.45;;
23768;SDS011;12064;50.890;5.424;2024-03-23T19:43:35;3.67;;;1.60;;
23768;SDS011;12064;50.890;5.424;2024-03-23T19:52:26;3.53;;;2.08;;
23768;SDS011;12064;50.890;5.424;2024-03-23T20:01:17;3.33;;;1.65;;
23768;SDS011;12064;50.890;5.424;2024-03-23T20:10:08;2.55;;;1.58;;
23768;SDS011;12064;50.890;5.424;2024-03-23T20:19:00;2.03;;;1.40;;
23768;SDS011;12064;50.890;5.424;2024-03-23T20:27:51;3.40;;;1.88;;
23768;SDS011;12064;50.890;5.424;2024-03-23T20:36:42;4.70;;;1.98;;
23768;SDS011;12064;50.890;5.424;2024-03-23T20:45:33;3.93;;;2.00;;
23768;SDS011;12064;50.890;5.424;2024-03-23T20:54:23;5.30;;;2.10;;
23768;SDS011;12064;50.890;5.424;2024-03-23T21:03:14;2.90;;;1.85;;
23768;SDS011;12064;50.890;5.424;2024-03-23T21:12:05;4.28;;;1.92;;
23768;SDS011;12064;50.890;5.424;2024-03-23T21:20:57;4.30;;;2.03;;
23768;SDS011;12064;50.890;5.424;2024-03-23T21:29:48;3.92;;;1.95;;
23768;SDS011;12064;50.890;5.424;2024-03-23T21:38:39;3.72;;;1.88;;
23768;SDS011;12064;50.890;5.424;2024-03-23T21:47:30;3.37;;;1.80;;
23768;SDS011;12064;50.890;5.424;2024-03-23T21:56:20;4.00;;;1.60;;
23768;SDS011;12064;50.890;5.424;2024-03-23T22:05:11;4.60;;;1.73;;
23768;SDS011;12064;50.890;5.424;2024-03-23T22:14:02;2.80;;;1.67;;
23768;SDS011;12064;50.890;5.424;2024-03-23T22:22:53;4.72;;;1.58;;
23768;SDS011;12064;50.890;5.424;2024-03-23T22:31:43;3.57;;;1.60;;
23768;SDS011;12064;50.890;5.424;2024-03-23T22:40:34;4.20;;;1.97;;
23768;SDS011;12064;50.890;5.424;2024-03-23T22:49:24;4.13;;;1.80;;
23768;SDS011;12064;50.890;5.424;2024-03-23T22:58:15;3.87;;;1.70;;
23768;SDS011;12064;50.890;5.424;2024-03-23T23:07:07;4.90;;;1.70;;
23768;SDS011;12064;50.890;5.424;2024-03-23T23:15:57;3.95;;;1.90;;
23768;SDS011;12064;50.890;5.424;2024-03-23T23:24:48;4.18;;;1.50;;
23768;SDS011;12064;50.890;5.424;2024-03-23T23:33:39;6.30;;;1.67;;
23768;SDS011;12064;50.890;5.424;2024-03-23T23:42:29;4.97;;;1.60;;
23768;SDS011;12064;50.890;5.424;2024-03-23T23:51:22;3.63;;;1.60;;
